sensor_id;sensor_type;location;lat;lon;timestamp;P1;durP1;ratioP1;P2;durP2;ratioP2
38911;SDS011;28444;48.056;14.408;2023-02-01T00:01:08;1.88;;;1.48;;
38911;SDS011;28444;48.056;14.408;2023-02-01T00:03:35;8.85;;;6.18;;
38911;SDS011;28444;48.056;14.408;2023-02-01T00:06:02;4.40;;;3.92;;
38911;SDS011;28444;48.056;14.408;2023-02-01T00:08:29;0.95;;;0.95;;
38911;SDS011;28444;48.056;14.408;2023-02-01T00:11:03;1.90;;;0.85;;
38911;SDS011;28444;48.056;14.408;2023-02-01T00:13:35;4.97;;;1.15;;
38911;SDS011;28444;48.056;14.408;2023-02-01T00:16:08;1.70;;;1.00;;
38911;SDS011;28444;48.056;14.408;2023-02-01T00:18:45;1.50;;;0.90;;
38911;SDS011;28444;48.056;14.408;2023-02-01T00:21:13;2.15;;;1.27;;
38911;SDS011;28444;48.056;14.408;2023-02-01T00:23:41;6.68;;;1.10;;
38911;SDS011;28444;48.056;14.408;2023-02-01T00:26:11;0.98;;;0.93;;
38911;SDS011;28444;48.056;14.408;2023-02-01T00:28:41;0.82;;;0.80;;
38911;SDS011;28444;48.056;14.408;2023-02-01T00:31:08;1.27;;;0.95;;
38911;SDS011;28444;48.056;14.408;2023-02-01T00:33:35;2.15;;;1.40;;
38911;SDS011;28444;48.056;14.408;2023-02-01T00:36:02;2.25;;;1.17;;
38911;SDS011;28444;48.056;14.408;2023-02-01T00:38:32;0.93;;;0.82;;
38911;SDS011;28444;48.056;14.408;2023-02-01T00:41:03;2.13;;;1.48;;
38911;SDS011;28444;48.056;14.408;2023-02-01T00:43:31;1.52;;;1.20;;
38911;SDS011;28444;48.056;14.408;2023-02-01T00:45:58;2.58;;;1.05;;
38911;SDS011;28444;48.056;14.408;2023-02-01T00:48:25;1.83;;;0.95;;
38911;SDS011;28444;48.056;14.408;2023-02-01T00:50:53;1.70;;;1.00;;
38911;SDS011;28444;48.056;14.408;2023-02-01T00:53:19;1.00;;;1.00;;
38911;SDS011;28444;48.056;14.408;2023-02-01T00:55:46;1.58;;;1.33;;
38911;SDS011;28444;48.056;14.408;2023-02-01T00:58:14;3.10;;;2.28;;
38911;SDS011;28444;48.056;14.408;2023-02-01T01:00:41;5.43;;;1.67;;
38911;SDS011;28444;48.056;14.408;2023-02-01T01:03:07;5.63;;;1.35;;
38911;SDS011;28444;48.056;14.408;2023-02-01T01:05:47;4.78;;;1.58;;
38911;SDS011;28444;48.056;14.408;2023-02-01T01:08:14;3.55;;;1.30;;
38911;SDS011;28444;48.056;14.408;2023-02-01T01:10:42;5.28;;;1.50;;
38911;SDS011;28444;48.056;14.408;2023-02-01T01:13:09;2.03;;;1.35;;
38911;SDS011;28444;48.056;14.408;2023-02-01T01:15:38;2.83;;;1.35;;
38911;SDS011;28444;48.056;14.408;2023-02-01T01:18:05;2.97;;;1.65;;
38911;SDS011;28444;48.056;14.408;2023-02-01T01:20:36;2.83;;;1.50;;
38911;SDS011;28444;48.056;14.408;2023-02-01T01:23:05;1.40;;;1.30;;
38911;SDS011;28444;48.056;14.408;2023-02-01T01:25:36;1.42;;;1.30;;
38911;SDS011;28444;48.056;14.408;2023-02-01T01:28:06;1.83;;;1.50;;
38911;SDS011;28444;48.056;14.408;2023-02-01T01:30:34;4.18;;;1.42;;
38911;SDS011;28444;48.056;14.408;2023-02-01T01:33:01;1.98;;;1.33;;
38911;SDS011;28444;48.056;14.408;2023-02-01T01:35:31;2.15;;;1.52;;
38911;SDS011;28444;48.056;14.408;2023-02-01T01:37:59;2.67;;;1.70;;
38911;SDS011;28444;48.056;14.408;2023-02-01T01:40:27;5.03;;;1.50;;
38911;SDS011;28444;48.056;14.408;2023-02-01T01:42:54;2.35;;;1.85;;
38911;SDS011;28444;48.056;14.408;2023-02-01T01:45:23;5.10;;;1.90;;
38911;SDS011;28444;48.056;14.408;2023-02-01T01:48:12;1.55;;;1.40;;
38911;SDS011;28444;48.056;14.408;2023-02-01T01:50:44;1.67;;;1.25;;
38911;SDS011;28444;48.056;14.408;2023-02-01T01:53:16;1.77;;;1.30;;
38911;SDS011;28444;48.056;14.408;2023-02-01T01:55:46;2.42;;;1.20;;
38911;SDS011;28444;48.056;14.408;2023-02-01T01:58:16;3.60;;;1.15;;
38911;SDS011;28444;48.056;14.408;2023-02-01T02:00:45;6.07;;;1.65;;
38911;SDS011;28444;48.056;14.408;2023-02-01T02:03:35;3.30;;;1.40;;
38911;SDS011;28444;48.056;14.408;2023-02-01T02:06:29;2.53;;;1.35;;
38911;SDS011;28444;48.056;14.408;2023-02-01T02:09:25;2.20;;;1.30;;
38911;SDS011;28444;48.056;14.408;2023-02-01T02:11:52;2.53;;;1.40;;
38911;SDS011;28444;48.056;14.408;2023-02-01T02:14:19;3.40;;;1.45;;
38911;SDS011;28444;48.056;14.408;2023-02-01T02:20:39;1.67;;;1.38;;
38911;SDS011;28444;48.056;14.408;2023-02-01T02:29:08;3.20;;;1.58;;
38911;SDS011;28444;48.056;14.408;2023-02-01T02:32:23;3.60;;;1.30;;
38911;SDS011;28444;48.056;14.408;2023-02-01T02:35:17;2.50;;;1.88;;
38911;SDS011;28444;48.056;14.408;2023-02-01T02:38:16;5.78;;;1.58;;
38911;SDS011;28444;48.056;14.408;2023-02-01T02:40:52;2.25;;;1.48;;
38911;SDS011;28444;48.056;14.408;2023-02-01T02:44:45;1.63;;;1.50;;
38911;SDS011;28444;48.056;14.408;2023-02-01T02:47:56;3.88;;;1.65;;
38911;SDS011;28444;48.056;14.408;2023-02-01T02:51:05;4.07;;;1.50;;
38911;SDS011;28444;48.056;14.408;2023-02-01T02:59:57;2.53;;;1.58;;
38911;SDS011;28444;48.056;14.408;2023-02-01T03:02:45;5.03;;;2.30;;
38911;SDS011;28444;48.056;14.408;2023-02-01T03:05:33;1.98;;;1.48;;
38911;SDS011;28444;48.056;14.408;2023-02-01T03:08:15;3.78;;;2.03;;
38911;SDS011;28444;48.056;14.408;2023-02-01T03:13:51;2.85;;;1.77;;
38911;SDS011;28444;48.056;14.408;2023-02-01T03:16:33;2.15;;;1.60;;
38911;SDS011;28444;48.056;14.408;2023-02-01T03:21:57;11.45;;;2.78;;
38911;SDS011;28444;48.056;14.408;2023-02-01T03:24:36;15.10;;;13.40;;
38911;SDS011;28444;48.056;14.408;2023-02-01T03:27:18;9.43;;;5.40;;
38911;SDS011;28444;48.056;14.408;2023-02-01T03:30:08;13.18;;;11.50;;
38911;SDS011;28444;48.056;14.408;2023-02-01T03:32:44;8.52;;;7.75;;
38911;SDS011;28444;48.056;14.408;2023-02-01T03:35:34;13.55;;;10.95;;
38911;SDS011;28444;48.056;14.408;2023-02-01T03:38:17;12.07;;;8.20;;
38911;SDS011;28444;48.056;14.408;2023-02-01T03:43:55;16.40;;;10.32;;
38911;SDS011;28444;48.056;14.408;2023-02-01T03:46:59;11.63;;;7.47;;
38911;SDS011;28444;48.056;14.408;2023-02-01T03:49:35;65.95;;;39.25;;
38911;SDS011;28444;48.056;14.408;2023-02-01T03:52:04;121.88;;;75.15;;
38911;SDS011;28444;48.056;14.408;2023-02-01T03:54:34;33.42;;;19.75;;
38911;SDS011;28444;48.056;14.408;2023-02-01T03:57:06;6.05;;;5.18;;
38911;SDS011;28444;48.056;14.408;2023-02-01T03:59:40;4.97;;;3.78;;
38911;SDS011;28444;48.056;14.408;2023-02-01T04:02:07;5.63;;;3.60;;
38911;SDS011;28444;48.056;14.408;2023-02-01T04:04:34;3.55;;;1.60;;
38911;SDS011;28444;48.056;14.408;2023-02-01T04:07:01;2.20;;;1.80;;
38911;SDS011;28444;48.056;14.408;2023-02-01T04:09:28;4.70;;;2.22;;
38911;SDS011;28444;48.056;14.408;2023-02-01T04:11:55;2.33;;;2.13;;
38911;SDS011;28444;48.056;14.408;2023-02-01T04:14:21;2.70;;;1.70;;
38911;SDS011;28444;48.056;14.408;2023-02-01T04:16:48;3.47;;;2.28;;
38911;SDS011;28444;48.056;14.408;2023-02-01T04:19:15;2.70;;;2.00;;
38911;SDS011;28444;48.056;14.408;2023-02-01T04:21:41;3.38;;;2.25;;
38911;SDS011;28444;48.056;14.408;2023-02-01T04:24:08;2.83;;;2.08;;
38911;SDS011;28444;48.056;14.408;2023-02-01T04:26:35;7.38;;;2.35;;
38911;SDS011;28444;48.056;14.408;2023-02-01T04:29:01;2.97;;;2.10;;
38911;SDS011;28444;48.056;14.408;2023-02-01T04:31:28;2.08;;;1.80;;
38911;SDS011;28444;48.056;14.408;2023-02-01T04:33:55;2.08;;;1.80;;
38911;SDS011;28444;48.056;14.408;2023-02-01T04:36:23;2.53;;;1.65;;
38911;SDS011;28444;48.056;14.408;2023-02-01T04:38:51;4.88;;;2.25;;
38911;SDS011;28444;48.056;14.408;2023-02-01T04:41:18;2.13;;;1.80;;
38911;SDS011;28444;48.056;14.408;2023-02-01T04:43:46;3.67;;;2.28;;
38911;SDS011;28444;48.056;14.408;2023-02-01T04:46:13;3.15;;;1.85;;
38911;SDS011;28444;48.056;14.408;2023-02-01T04:48:40;4.70;;;2.70;;
38911;SDS011;28444;48.056;14.408;2023-02-01T04:51:09;2.63;;;1.75;;
38911;SDS011;28444;48.056;14.408;2023-02-01T04:53:36;2.88;;;2.15;;
38911;SDS011;28444;48.056;14.408;2023-02-01T04:56:03;4.97;;;1.85;;
38911;SDS011;28444;48.056;14.408;2023-02-01T04:58:30;3.30;;;1.75;;
38911;SDS011;28444;48.056;14.408;2023-02-01T05:00:56;2.15;;;1.80;;
38911;SDS011;28444;48.056;14.408;2023-02-01T05:03:23;5.47;;;2.10;;
38911;SDS011;28444;48.056;14.408;2023-02-01T05:05:50;2.15;;;1.58;;
38911;SDS011;28444;48.056;14.408;2023-02-01T05:08:18;2.15;;;1.60;;
38911;SDS011;28444;48.056;14.408;2023-02-01T05:10:44;4.90;;;2.55;;
38911;SDS011;28444;48.056;14.408;2023-02-01T05:13:11;2.28;;;1.70;;
38911;SDS011;28444;48.056;14.408;2023-02-01T05:15:56;4.78;;;2.17;;
38911;SDS011;28444;48.056;14.408;2023-02-01T05:18:23;3.17;;;1.60;;
38911;SDS011;28444;48.056;14.408;2023-02-01T05:20:49;4.35;;;2.17;;
38911;SDS011;28444;48.056;14.408;2023-02-01T05:23:16;2.75;;;1.80;;
38911;SDS011;28444;48.056;14.408;2023-02-01T05:25:43;1.92;;;1.70;;
38911;SDS011;28444;48.056;14.408;2023-02-01T05:28:09;3.20;;;2.30;;
38911;SDS011;28444;48.056;14.408;2023-02-01T05:30:36;3.25;;;2.00;;
38911;SDS011;28444;48.056;14.408;2023-02-01T05:33:05;3.30;;;1.90;;
38911;SDS011;28444;48.056;14.408;2023-02-01T05:35:32;3.28;;;2.00;;
38911;SDS011;28444;48.056;14.408;2023-02-01T05:37:58;5.45;;;2.72;;
38911;SDS011;28444;48.056;14.408;2023-02-01T05:40:25;5.40;;;3.92;;
38911;SDS011;28444;48.056;14.408;2023-02-01T05:42:52;3.05;;;2.47;;
38911;SDS011;28444;48.056;14.408;2023-02-01T05:45:18;2.83;;;2.22;;
38911;SDS011;28444;48.056;14.408;2023-02-01T05:47:45;3.53;;;1.90;;
38911;SDS011;28444;48.056;14.408;2023-02-01T05:50:12;2.97;;;2.08;;
38911;SDS011;28444;48.056;14.408;2023-02-01T05:52:38;2.92;;;1.70;;
38911;SDS011;28444;48.056;14.408;2023-02-01T05:55:05;3.30;;;2.05;;
38911;SDS011;28444;48.056;14.408;2023-02-01T05:57:32;2.78;;;2.30;;
38911;SDS011;28444;48.056;14.408;2023-02-01T05:59:58;2.40;;;2.00;;
38911;SDS011;28444;48.056;14.408;2023-02-01T06:02:26;5.07;;;2.40;;
38911;SDS011;28444;48.056;14.408;2023-02-01T06:04:52;4.60;;;2.05;;
38911;SDS011;28444;48.056;14.408;2023-02-01T06:07:19;3.08;;;2.47;;
38911;SDS011;28444;48.056;14.408;2023-02-01T06:09:46;2.50;;;2.30;;
38911;SDS011;28444;48.056;14.408;2023-02-01T06:12:13;3.67;;;2.15;;
38911;SDS011;28444;48.056;14.408;2023-02-01T06:14:40;2.63;;;2.42;;
38911;SDS011;28444;48.056;14.408;2023-02-01T06:17:07;5.30;;;3.22;;
38911;SDS011;28444;48.056;14.408;2023-02-01T06:19:34;6.13;;;3.45;;
38911;SDS011;28444;48.056;14.408;2023-02-01T06:22:01;2.80;;;2.13;;
38911;SDS011;28444;48.056;14.408;2023-02-01T06:24:27;6.80;;;3.92;;
38911;SDS011;28444;48.056;14.408;2023-02-01T06:26:54;4.35;;;2.67;;
38911;SDS011;28444;48.056;14.408;2023-02-01T06:29:21;4.38;;;1.98;;
38911;SDS011;28444;48.056;14.408;2023-02-01T06:31:47;4.75;;;3.13;;
38911;SDS011;28444;48.056;14.408;2023-02-01T06:34:14;12.95;;;3.10;;
38911;SDS011;28444;48.056;14.408;2023-02-01T06:36:41;4.28;;;2.75;;
38911;SDS011;28444;48.056;14.408;2023-02-01T06:39:07;4.50;;;2.80;;
38911;SDS011;28444;48.056;14.408;2023-02-01T06:41:34;6.72;;;3.22;;
38911;SDS011;28444;48.056;14.408;2023-02-01T06:44:01;3.25;;;2.30;;
38911;SDS011;28444;48.056;14.408;2023-02-01T06:46:27;5.05;;;2.22;;
38911;SDS011;28444;48.056;14.408;2023-02-01T06:48:54;5.10;;;2.50;;
38911;SDS011;28444;48.056;14.408;2023-02-01T06:51:22;3.08;;;2.55;;
38911;SDS011;28444;48.056;14.408;2023-02-01T06:53:54;2.95;;;2.63;;
38911;SDS011;28444;48.056;14.408;2023-02-01T06:56:21;3.30;;;2.67;;
38911;SDS011;28444;48.056;14.408;2023-02-01T06:58:48;3.53;;;2.67;;
38911;SDS011;28444;48.056;14.408;2023-02-01T07:01:15;9.68;;;3.10;;
38911;SDS011;28444;48.056;14.408;2023-02-01T07:03:42;4.72;;;2.60;;
38911;SDS011;28444;48.056;14.408;2023-02-01T07:06:09;3.33;;;2.70;;
38911;SDS011;28444;48.056;14.408;2023-02-01T07:08:36;5.68;;;3.47;;
38911;SDS011;28444;48.056;14.408;2023-02-01T07:11:05;5.55;;;3.22;;
38911;SDS011;28444;48.056;14.408;2023-02-01T07:13:34;7.88;;;2.88;;
38911;SDS011;28444;48.056;14.408;2023-02-01T07:16:01;6.82;;;2.72;;
38911;SDS011;28444;48.056;14.408;2023-02-01T07:18:29;5.78;;;3.13;;
38911;SDS011;28444;48.056;14.408;2023-02-01T07:20:56;2.83;;;2.40;;
38911;SDS011;28444;48.056;14.408;2023-02-01T07:23:23;5.97;;;3.05;;
38911;SDS011;28444;48.056;14.408;2023-02-01T07:25:57;3.92;;;2.63;;
38911;SDS011;28444;48.056;14.408;2023-02-01T07:28:26;2.85;;;2.30;;
38911;SDS011;28444;48.056;14.408;2023-02-01T07:30:54;3.67;;;2.92;;
38911;SDS011;28444;48.056;14.408;2023-02-01T07:33:22;6.85;;;3.00;;
38911;SDS011;28444;48.056;14.408;2023-02-01T07:35:53;10.10;;;3.92;;
38911;SDS011;28444;48.056;14.408;2023-02-01T07:38:19;12.45;;;6.65;;
38911;SDS011;28444;48.056;14.408;2023-02-01T07:40:48;3.47;;;2.53;;
38911;SDS011;28444;48.056;14.408;2023-02-01T07:43:14;4.43;;;2.60;;
38911;SDS011;28444;48.056;14.408;2023-02-01T07:45:42;6.68;;;3.00;;
38911;SDS011;28444;48.056;14.408;2023-02-01T07:48:08;7.47;;;2.88;;
38911;SDS011;28444;48.056;14.408;2023-02-01T07:50:35;5.20;;;2.95;;
38911;SDS011;28444;48.056;14.408;2023-02-01T07:53:02;3.03;;;2.38;;
38911;SDS011;28444;48.056;14.408;2023-02-01T07:55:28;3.90;;;2.72;;
38911;SDS011;28444;48.056;14.408;2023-02-01T07:57:58;4.50;;;2.90;;
38911;SDS011;28444;48.056;14.408;2023-02-01T08:00:25;3.33;;;2.45;;
38911;SDS011;28444;48.056;14.408;2023-02-01T08:03:11;3.17;;;1.90;;
38911;SDS011;28444;48.056;14.408;2023-02-01T08:05:38;6.03;;;3.30;;
38911;SDS011;28444;48.056;14.408;2023-02-01T08:08:05;4.18;;;3.10;;
38911;SDS011;28444;48.056;14.408;2023-02-01T08:10:32;3.70;;;2.33;;
38911;SDS011;28444;48.056;14.408;2023-02-01T08:13:01;3.50;;;2.50;;
38911;SDS011;28444;48.056;14.408;2023-02-01T08:15:29;4.07;;;2.58;;
38911;SDS011;28444;48.056;14.408;2023-02-01T08:17:56;9.57;;;2.65;;
38911;SDS011;28444;48.056;14.408;2023-02-01T08:20:24;4.10;;;2.50;;
38911;SDS011;28444;48.056;14.408;2023-02-01T08:22:54;4.38;;;2.20;;
38911;SDS011;28444;48.056;14.408;2023-02-01T08:25:21;3.85;;;2.35;;
38911;SDS011;28444;48.056;14.408;2023-02-01T08:27:49;3.13;;;2.33;;
38911;SDS011;28444;48.056;14.408;2023-02-01T08:30:16;2.80;;;2.38;;
38911;SDS011;28444;48.056;14.408;2023-02-01T08:32:43;3.35;;;2.33;;
38911;SDS011;28444;48.056;14.408;2023-02-01T08:35:10;3.33;;;2.55;;
38911;SDS011;28444;48.056;14.408;2023-02-01T08:37:37;3.45;;;2.63;;
38911;SDS011;28444;48.056;14.408;2023-02-01T08:40:04;3.50;;;2.05;;
38911;SDS011;28444;48.056;14.408;2023-02-01T08:42:31;2.75;;;2.22;;
38911;SDS011;28444;48.056;14.408;2023-02-01T08:45:17;2.30;;;1.83;;
38911;SDS011;28444;48.056;14.408;2023-02-01T08:47:46;6.45;;;3.17;;
38911;SDS011;28444;48.056;14.408;2023-02-01T08:50:15;4.82;;;2.50;;
38911;SDS011;28444;48.056;14.408;2023-02-01T08:52:43;4.13;;;2.38;;
38911;SDS011;28444;48.056;14.408;2023-02-01T08:55:10;6.00;;;3.50;;
38911;SDS011;28444;48.056;14.408;2023-02-01T08:57:38;7.40;;;2.92;;
38911;SDS011;28444;48.056;14.408;2023-02-01T09:00:06;5.07;;;3.05;;
38911;SDS011;28444;48.056;14.408;2023-02-01T09:02:36;5.93;;;2.53;;
38911;SDS011;28444;48.056;14.408;2023-02-01T09:05:03;4.55;;;2.38;;
38911;SDS011;28444;48.056;14.408;2023-02-01T09:07:31;6.40;;;2.60;;
38911;SDS011;28444;48.056;14.408;2023-02-01T09:09:59;4.85;;;2.65;;
38911;SDS011;28444;48.056;14.408;2023-02-01T09:12:29;4.32;;;2.22;;
38911;SDS011;28444;48.056;14.408;2023-02-01T09:14:57;4.95;;;2.72;;
38911;SDS011;28444;48.056;14.408;2023-02-01T09:17:26;2.95;;;2.13;;
38911;SDS011;28444;48.056;14.408;2023-02-01T09:19:54;3.53;;;2.08;;
38911;SDS011;28444;48.056;14.408;2023-02-01T09:22:21;3.28;;;2.17;;
38911;SDS011;28444;48.056;14.408;2023-02-01T09:24:48;4.50;;;2.20;;
38911;SDS011;28444;48.056;14.408;2023-02-01T09:27:15;3.47;;;1.80;;
38911;SDS011;28444;48.056;14.408;2023-02-01T09:29:41;3.55;;;2.13;;
38911;SDS011;28444;48.056;14.408;2023-02-01T09:32:09;3.00;;;2.00;;
38911;SDS011;28444;48.056;14.408;2023-02-01T09:34:36;2.45;;;2.00;;
38911;SDS011;28444;48.056;14.408;2023-02-01T09:37:03;3.17;;;2.17;;
38911;SDS011;28444;48.056;14.408;2023-02-01T09:39:30;3.55;;;1.60;;
38911;SDS011;28444;48.056;14.408;2023-02-01T09:45:28;2.65;;;2.13;;
38911;SDS011;28444;48.056;14.408;2023-02-01T09:48:14;4.40;;;2.38;;
38911;SDS011;28444;48.056;14.408;2023-02-01T09:51:05;2.90;;;2.33;;
38911;SDS011;28444;48.056;14.408;2023-02-01T09:53:37;7.53;;;2.30;;
38911;SDS011;28444;48.056;14.408;2023-02-01T09:56:07;2.95;;;1.50;;
38911;SDS011;28444;48.056;14.408;2023-02-01T09:58:38;5.13;;;2.55;;
38911;SDS011;28444;48.056;14.408;2023-02-01T10:01:17;5.10;;;2.95;;
38911;SDS011;28444;48.056;14.408;2023-02-01T10:03:46;4.40;;;2.85;;
38911;SDS011;28444;48.056;14.408;2023-02-01T10:06:30;3.70;;;2.78;;
38911;SDS011;28444;48.056;14.408;2023-02-01T10:18:40;2.83;;;2.10;;
38911;SDS011;28444;48.056;14.408;2023-02-01T10:24:37;3.55;;;2.25;;
38911;SDS011;28444;48.056;14.408;2023-02-01T10:27:14;3.13;;;2.35;;
38911;SDS011;28444;48.056;14.408;2023-02-01T10:29:47;2.58;;;2.10;;
38911;SDS011;28444;48.056;14.408;2023-02-01T10:32:21;2.47;;;2.05;;
38911;SDS011;28444;48.056;14.408;2023-02-01T10:35:02;3.05;;;2.30;;
38911;SDS011;28444;48.056;14.408;2023-02-01T10:37:36;2.78;;;2.30;;
38911;SDS011;28444;48.056;14.408;2023-02-01T10:40:22;4.47;;;2.17;;
38911;SDS011;28444;48.056;14.408;2023-02-01T10:42:58;4.68;;;2.67;;
38911;SDS011;28444;48.056;14.408;2023-02-01T10:45:29;2.72;;;2.28;;
38911;SDS011;28444;48.056;14.408;2023-02-01T10:47:57;3.83;;;2.55;;
38911;SDS011;28444;48.056;14.408;2023-02-01T10:56:37;4.70;;;2.38;;
38911;SDS011;28444;48.056;14.408;2023-02-01T10:59:05;3.83;;;2.40;;
38911;SDS011;28444;48.056;14.408;2023-02-01T11:01:41;6.88;;;2.03;;
38911;SDS011;28444;48.056;14.408;2023-02-01T11:04:12;5.63;;;2.10;;
38911;SDS011;28444;48.056;14.408;2023-02-01T11:06:42;2.83;;;2.13;;
38911;SDS011;28444;48.056;14.408;2023-02-01T11:09:16;5.95;;;1.75;;
38911;SDS011;28444;48.056;14.408;2023-02-01T11:11:57;4.43;;;2.45;;
38911;SDS011;28444;48.056;14.408;2023-02-01T11:14:32;3.78;;;2.20;;
38911;SDS011;28444;48.056;14.408;2023-02-01T11:17:12;4.35;;;2.22;;
38911;SDS011;28444;48.056;14.408;2023-02-01T11:19:59;3.67;;;2.05;;
38911;SDS011;28444;48.056;14.408;2023-02-01T11:22:27;7.53;;;2.30;;
38911;SDS011;28444;48.056;14.408;2023-02-01T11:24:56;3.75;;;2.13;;
38911;SDS011;28444;48.056;14.408;2023-02-01T11:27:23;9.45;;;3.20;;
38911;SDS011;28444;48.056;14.408;2023-02-01T11:29:55;6.07;;;2.20;;
38911;SDS011;28444;48.056;14.408;2023-02-01T11:32:26;6.35;;;1.98;;
38911;SDS011;28444;48.056;14.408;2023-02-01T11:34:55;4.75;;;1.80;;
38911;SDS011;28444;48.056;14.408;2023-02-01T11:37:27;2.50;;;2.07;;
38911;SDS011;28444;48.056;14.408;2023-02-01T11:39:57;5.95;;;2.42;;
38911;SDS011;28444;48.056;14.408;2023-02-01T11:42:26;3.40;;;2.05;;
38911;SDS011;28444;48.056;14.408;2023-02-01T11:45:16;3.65;;;2.05;;
38911;SDS011;28444;48.056;14.408;2023-02-01T11:47:47;2.28;;;1.70;;
38911;SDS011;28444;48.056;14.408;2023-02-01T11:50:21;3.53;;;2.10;;
38911;SDS011;28444;48.056;14.408;2023-02-01T11:53:19;3.03;;;2.28;;
38911;SDS011;28444;48.056;14.408;2023-02-01T11:59:08;5.43;;;3.22;;
38911;SDS011;28444;48.056;14.408;2023-02-01T12:02:03;5.00;;;2.72;;
38911;SDS011;28444;48.056;14.408;2023-02-01T12:05:37;5.10;;;2.78;;
38911;SDS011;28444;48.056;14.408;2023-02-01T12:08:11;5.80;;;2.35;;
38911;SDS011;28444;48.056;14.408;2023-02-01T12:11:18;6.78;;;2.55;;
38911;SDS011;28444;48.056;14.408;2023-02-01T12:14:06;3.67;;;2.50;;
38911;SDS011;28444;48.056;14.408;2023-02-01T12:24:52;8.45;;;2.55;;
38911;SDS011;28444;48.056;14.408;2023-02-01T12:27:13;4.70;;;2.63;;
38911;SDS011;28444;48.056;14.408;2023-02-01T12:30:24;4.60;;;2.10;;
38911;SDS011;28444;48.056;14.408;2023-02-01T12:32:47;3.83;;;2.28;;
38911;SDS011;28444;48.056;14.408;2023-02-01T12:38:57;6.57;;;2.55;;
38911;SDS011;28444;48.056;14.408;2023-02-01T12:42:22;7.03;;;2.78;;
38911;SDS011;28444;48.056;14.408;2023-02-01T12:47:20;4.50;;;2.10;;
38911;SDS011;28444;48.056;14.408;2023-02-01T12:49:58;3.90;;;2.45;;
38911;SDS011;28444;48.056;14.408;2023-02-01T12:52:54;3.65;;;2.30;;
38911;SDS011;28444;48.056;14.408;2023-02-01T12:55:23;5.95;;;2.42;;
38911;SDS011;28444;48.056;14.408;2023-02-01T12:57:58;4.43;;;2.60;;
38911;SDS011;28444;48.056;14.408;2023-02-01T13:00:38;7.03;;;2.08;;
38911;SDS011;28444;48.056;14.408;2023-02-01T13:03:44;5.60;;;2.17;;
38911;SDS011;28444;48.056;14.408;2023-02-01T13:06:32;7.50;;;3.10;;
38911;SDS011;28444;48.056;14.408;2023-02-01T13:09:09;3.88;;;2.38;;
38911;SDS011;28444;48.056;14.408;2023-02-01T13:11:47;6.00;;;2.42;;
38911;SDS011;28444;48.056;14.408;2023-02-01T13:14:32;3.88;;;2.00;;
38911;SDS011;28444;48.056;14.408;2023-02-01T13:17:05;3.65;;;2.67;;
38911;SDS011;28444;48.056;14.408;2023-02-01T13:19:54;7.10;;;2.50;;
38911;SDS011;28444;48.056;14.408;2023-02-01T13:22:28;3.60;;;1.90;;
38911;SDS011;28444;48.056;14.408;2023-02-01T13:25:00;3.22;;;2.17;;
38911;SDS011;28444;48.056;14.408;2023-02-01T13:27:30;2.75;;;2.17;;
38911;SDS011;28444;48.056;14.408;2023-02-01T13:30:03;3.58;;;1.67;;
38911;SDS011;28444;48.056;14.408;2023-02-01T13:32:51;6.80;;;1.75;;
38911;SDS011;28444;48.056;14.408;2023-02-01T13:44:42;9.30;;;2.78;;
38911;SDS011;28444;48.056;14.408;2023-02-01T13:47:21;3.65;;;2.08;;
38911;SDS011;28444;48.056;14.408;2023-02-01T13:50:24;9.65;;;1.92;;
38911;SDS011;28444;48.056;14.408;2023-02-01T13:52:56;5.35;;;2.38;;
38911;SDS011;28444;48.056;14.408;2023-02-01T13:55:32;4.22;;;2.40;;
38911;SDS011;28444;48.056;14.408;2023-02-01T13:58:22;7.38;;;2.60;;
38911;SDS011;28444;48.056;14.408;2023-02-01T14:03:49;7.63;;;2.83;;
38911;SDS011;28444;48.056;14.408;2023-02-01T14:06:33;11.88;;;2.33;;
38911;SDS011;28444;48.056;14.408;2023-02-01T14:19:34;8.25;;;2.55;;
38911;SDS011;28444;48.056;14.408;2023-02-01T14:25:01;6.82;;;2.88;;
38911;SDS011;28444;48.056;14.408;2023-02-01T14:27:28;9.57;;;2.75;;
38911;SDS011;28444;48.056;14.408;2023-02-01T14:30:05;7.53;;;3.20;;
38911;SDS011;28444;48.056;14.408;2023-02-01T14:32:34;14.20;;;3.53;;
38911;SDS011;28444;48.056;14.408;2023-02-01T14:35:29;8.68;;;3.80;;
38911;SDS011;28444;48.056;14.408;2023-02-01T14:37:58;4.10;;;3.15;;
38911;SDS011;28444;48.056;14.408;2023-02-01T14:40:28;12.02;;;3.40;;
38911;SDS011;28444;48.056;14.408;2023-02-01T14:42:56;7.13;;;3.55;;
38911;SDS011;28444;48.056;14.408;2023-02-01T14:51:03;12.23;;;3.92;;
38911;SDS011;28444;48.056;14.408;2023-02-01T14:53:33;6.00;;;3.55;;
38911;SDS011;28444;48.056;14.408;2023-02-01T14:58:56;8.40;;;2.72;;
38911;SDS011;28444;48.056;14.408;2023-02-01T15:01:30;10.02;;;2.38;;
38911;SDS011;28444;48.056;14.408;2023-02-01T15:06:58;6.82;;;3.10;;
38911;SDS011;28444;48.056;14.408;2023-02-01T15:09:37;9.05;;;2.40;;
38911;SDS011;28444;48.056;14.408;2023-02-01T15:12:15;3.85;;;2.50;;
38911;SDS011;28444;48.056;14.408;2023-02-01T15:14:47;4.75;;;2.28;;
38911;SDS011;28444;48.056;14.408;2023-02-01T15:17:29;7.72;;;3.03;;
38911;SDS011;28444;48.056;14.408;2023-02-01T15:20:01;12.32;;;4.38;;
38911;SDS011;28444;48.056;14.408;2023-02-01T15:22:54;5.70;;;2.42;;
38911;SDS011;28444;48.056;14.408;2023-02-01T15:25:24;7.55;;;2.53;;
38911;SDS011;28444;48.056;14.408;2023-02-01T15:27:54;4.70;;;2.30;;
38911;SDS011;28444;48.056;14.408;2023-02-01T15:30:23;8.68;;;3.15;;
38911;SDS011;28444;48.056;14.408;2023-02-01T15:36:10;10.43;;;2.72;;
38911;SDS011;28444;48.056;14.408;2023-02-01T15:41:20;7.13;;;2.75;;
38911;SDS011;28444;48.056;14.408;2023-02-01T15:46:47;6.07;;;2.35;;
38911;SDS011;28444;48.056;14.408;2023-02-01T15:54:58;13.05;;;4.20;;
38911;SDS011;28444;48.056;14.408;2023-02-01T15:57:31;7.50;;;3.17;;
38911;SDS011;28444;48.056;14.408;2023-02-01T16:00:04;7.88;;;2.50;;
38911;SDS011;28444;48.056;14.408;2023-02-01T16:02:35;6.90;;;2.33;;
38911;SDS011;28444;48.056;14.408;2023-02-01T16:05:34;7.60;;;3.42;;
38911;SDS011;28444;48.056;14.408;2023-02-01T16:10:44;5.70;;;2.50;;
38911;SDS011;28444;48.056;14.408;2023-02-01T16:13:14;14.50;;;3.75;;
38911;SDS011;28444;48.056;14.408;2023-02-01T16:15:42;4.25;;;2.20;;
38911;SDS011;28444;48.056;14.408;2023-02-01T16:18:10;12.60;;;3.00;;
38911;SDS011;28444;48.056;14.408;2023-02-01T16:20:38;6.57;;;2.92;;
38911;SDS011;28444;48.056;14.408;2023-02-01T16:23:06;4.38;;;2.00;;
38911;SDS011;28444;48.056;14.408;2023-02-01T16:25:34;5.30;;;2.10;;
38911;SDS011;28444;48.056;14.408;2023-02-01T16:28:01;5.95;;;1.92;;
38911;SDS011;28444;48.056;14.408;2023-02-01T16:30:28;4.72;;;2.58;;
38911;SDS011;28444;48.056;14.408;2023-02-01T16:32:55;9.82;;;2.75;;
38911;SDS011;28444;48.056;14.408;2023-02-01T16:35:24;9.18;;;2.63;;
38911;SDS011;28444;48.056;14.408;2023-02-01T16:37:53;10.48;;;2.53;;
38911;SDS011;28444;48.056;14.408;2023-02-01T16:40:20;4.97;;;2.10;;
38911;SDS011;28444;48.056;14.408;2023-02-01T16:42:51;12.68;;;3.15;;
38911;SDS011;28444;48.056;14.408;2023-02-01T16:45:19;7.47;;;2.38;;
38911;SDS011;28444;48.056;14.408;2023-02-01T16:47:49;4.43;;;2.05;;
38911;SDS011;28444;48.056;14.408;2023-02-01T16:50:20;7.78;;;2.65;;
38911;SDS011;28444;48.056;14.408;2023-02-01T16:52:49;9.35;;;4.10;;
38911;SDS011;28444;48.056;14.408;2023-02-01T16:55:18;13.30;;;2.90;;
38911;SDS011;28444;48.056;14.408;2023-02-01T16:57:48;5.50;;;2.42;;
38911;SDS011;28444;48.056;14.408;2023-02-01T17:00:15;6.88;;;2.72;;
38911;SDS011;28444;48.056;14.408;2023-02-01T17:02:50;5.38;;;2.65;;
38911;SDS011;28444;48.056;14.408;2023-02-01T17:05:18;6.25;;;2.70;;